Terminal Aerodrome Forecast
Issued by NWS

Home | Current Version | Previous Version | Text Only | Print | Product List | Glossary On
Versions: 1 2 3 4 5 6 7 8 9 10 11 12 13 14 15 16 17 18 19 20 21 22 23 24 25 26
000
FTUS41 KOKX 011411 AAA
TAFHPN
TAF AMD
KHPN 011411Z 0114/0212 28009KT P6SM BKN100
     FM011600 27010G16KT P6SM FEW060 BKN100
     FM011800 28011G18KT P6SM SCT060 SCT100
     FM012300 31006KT P6SM FEW060
     FM020300 31003KT P6SM SKC
      AMD NOT SKED=

USA.gov is the U.S. government's official web portal to all federal, state and local government web resources and services.